createdAt,value
2022-11-14T00:00:59.755Z,11.63
2022-11-14T00:03:26.891Z,13.35
2022-11-14T00:05:53.738Z,13.05
2022-11-14T00:08:25.250Z,12.70
2022-11-14T00:10:52.671Z,11.23
2022-11-14T00:13:20.851Z,10.82
2022-11-14T00:15:54.442Z,11.25
2022-11-14T00:18:21.531Z,12.43
2022-11-14T00:20:53.190Z,11.00
2022-11-14T00:23:21.507Z,12.50
2022-11-14T00:25:48.755Z,11.98
2022-11-14T00:28:16.079Z,13.05
2022-11-14T00:30:49.761Z,11.45
2022-11-14T00:33:20.705Z,13.40
2022-11-14T00:35:53.388Z,13.27
2022-11-14T00:38:20.409Z,12.47
2022-11-14T00:40:47.302Z,13.98
2022-11-14T00:43:14.451Z,12.73
2022-11-14T00:45:46.643Z,14.65
2022-11-14T00:48:15.084Z,14.02
2022-11-14T00:50:43.045Z,12.57
2022-11-14T00:53:09.967Z,14.18
2022-11-14T00:55:37.128Z,14.68
2022-11-14T00:58:04.002Z,14.75
2022-11-14T01:00:31.441Z,15.30
2022-11-14T01:02:58.455Z,15.40
2022-11-14T01:05:26.497Z,15.32
2022-11-14T01:07:53.956Z,14.20
2022-11-14T01:10:21.260Z,13.38
2022-11-14T01:12:48.835Z,14.63
2022-11-14T01:15:15.782Z,15.13
2022-11-14T01:17:43.248Z,14.98
2022-11-14T01:20:10.388Z,13.88
2022-11-14T01:22:37.568Z,13.32
2022-11-14T01:25:04.709Z,12.23
2022-11-14T01:27:32.070Z,13.25
2022-11-14T01:29:58.917Z,12.15
2022-11-14T01:32:26.868Z,14.13
2022-11-14T01:34:53.788Z,13.90
2022-11-14T01:37:20.708Z,13.52
2022-11-14T01:39:47.829Z,13.00
2022-11-14T01:42:14.706Z,13.43
2022-11-14T01:44:48.478Z,15.90
2022-11-14T01:47:23.679Z,15.13
2022-11-14T01:49:56.064Z,15.85
2022-11-14T01:52:31.030Z,15.20
2022-11-14T01:55:00.866Z,13.85
2022-11-14T01:57:33.499Z,13.40
2022-11-14T02:00:06.008Z,14.27
2022-11-14T02:02:33.081Z,15.87
2022-11-14T02:05:10.386Z,17.42
2022-11-14T02:07:40.307Z,14.82
2022-11-14T02:10:10.617Z,14.55
2022-11-14T02:12:38.152Z,14.80
2022-11-14T02:15:05.759Z,14.98
2022-11-14T02:17:32.858Z,16.42
2022-11-14T02:20:11.772Z,15.88
2022-11-14T02:22:40.848Z,13.57
2022-11-14T02:25:10.024Z,15.13
2022-11-14T02:27:39.264Z,15.85
2022-11-14T02:30:12.588Z,14.70
2022-11-14T02:33:08.901Z,14.48
2022-11-14T02:35:26.837Z,16.48
2022-11-14T02:37:53.988Z,15.63
2022-11-14T02:40:20.917Z,15.73
2022-11-14T02:42:48.015Z,14.88
2022-11-14T02:45:15.352Z,15.48
2022-11-14T02:47:42.204Z,14.40
2022-11-14T02:50:09.748Z,15.18
2022-11-14T02:52:36.622Z,15.20
2022-11-14T02:55:05.274Z,15.55
2022-11-14T02:57:32.135Z,15.27
2022-11-14T02:59:59.342Z,15.98
2022-11-14T03:02:26.227Z,15.52
2022-11-14T03:04:53.354Z,16.17
2022-11-14T03:07:20.569Z,16.05
2022-11-14T03:09:47.636Z,17.00
2022-11-14T03:12:19.212Z,16.50
2022-11-14T03:14:46.141Z,17.20
2022-11-14T03:17:13.034Z,17.35
2022-11-14T03:19:40.221Z,16.70
2022-11-14T03:22:07.163Z,18.58
2022-11-14T03:24:34.050Z,16.48
2022-11-14T03:27:01.233Z,17.98
2022-11-14T03:29:28.172Z,17.40
2022-11-14T03:31:55.350Z,17.63
2022-11-14T03:34:22.160Z,17.25
2022-11-14T03:36:49.403Z,19.95
2022-11-14T03:39:16.893Z,17.58
2022-11-14T03:41:43.928Z,19.50
2022-11-14T03:44:10.840Z,16.15
2022-11-14T03:46:38.059Z,19.02
2022-11-14T03:49:05.020Z,17.48
2022-11-14T03:51:32.433Z,18.02
2022-11-14T03:53:59.311Z,19.30
2022-11-14T03:56:26.567Z,16.60
2022-11-14T03:58:53.399Z,17.27
2022-11-14T04:01:20.663Z,18.33
2022-11-14T04:03:47.525Z,17.73
2022-11-14T04:06:15.320Z,18.08
2022-11-14T04:08:42.497Z,17.63
2022-11-14T04:11:09.460Z,19.60
2022-11-14T04:13:36.596Z,18.05
2022-11-14T04:16:03.657Z,18.63
2022-11-14T04:18:31.070Z,17.35
2022-11-14T04:20:58.143Z,17.55
2022-11-14T04:23:25.570Z,17.20
2022-11-14T04:25:53.026Z,20.23
2022-11-14T04:28:20.219Z,17.90
2022-11-14T04:30:47.115Z,18.15
2022-11-14T04:33:14.289Z,16.70
2022-11-14T04:35:41.129Z,20.27
2022-11-14T04:38:09.489Z,17.48
2022-11-14T04:40:36.337Z,17.85
2022-11-14T04:43:04.239Z,17.20
2022-11-14T04:45:31.243Z,17.92
2022-11-14T04:47:58.419Z,17.60
2022-11-14T04:50:25.309Z,16.02
2022-11-14T04:52:53.741Z,18.25
2022-11-14T04:55:20.625Z,16.73
2022-11-14T04:57:47.565Z,18.52
2022-11-14T05:00:15.256Z,18.13
2022-11-14T05:02:42.113Z,17.08
2022-11-14T05:05:09.479Z,18.15
2022-11-14T05:07:36.411Z,17.17
2022-11-14T05:10:05.253Z,16.40
2022-11-14T05:12:32.176Z,17.58
2022-11-14T05:14:59.345Z,17.35
2022-11-14T05:17:26.362Z,17.05
2022-11-14T05:19:53.593Z,18.05
2022-11-14T05:22:20.515Z,17.00
2022-11-14T05:24:47.680Z,17.63
2022-11-14T05:27:14.547Z,18.42
2022-11-14T05:29:41.483Z,17.15
2022-11-14T05:32:12.409Z,17.25
2022-11-14T05:34:42.967Z,17.00
2022-11-14T05:37:10.103Z,16.60
2022-11-14T05:39:36.969Z,16.33
2022-11-14T05:42:04.625Z,17.50
2022-11-14T05:44:31.485Z,17.73
2022-11-14T05:46:58.709Z,16.30
2022-11-14T05:49:25.663Z,18.75
2022-11-14T05:51:52.793Z,18.23
2022-11-14T05:54:19.659Z,16.65
2022-11-14T05:56:46.844Z,18.38
2022-11-14T05:59:13.700Z,17.02
2022-11-14T06:01:41.138Z,19.05
2022-11-14T06:04:08.102Z,16.70
2022-11-14T06:06:35.315Z,17.17
2022-11-14T06:09:02.232Z,16.85
2022-11-14T06:11:29.473Z,17.15
2022-11-14T06:13:56.405Z,19.00
2022-11-14T06:16:23.856Z,17.55
2022-11-14T06:18:53.787Z,17.90
2022-11-14T06:21:22.787Z,16.02
2022-11-14T06:23:50.280Z,17.90
2022-11-14T06:26:30.427Z,16.60
2022-11-14T06:28:58.443Z,17.83
2022-11-14T06:31:26.485Z,18.25
2022-11-14T06:33:53.522Z,18.48
2022-11-14T06:36:21.052Z,15.52
2022-11-14T06:38:48.002Z,17.15
2022-11-14T06:41:22.530Z,18.30
2022-11-14T06:43:55.608Z,16.48
2022-11-14T06:46:23.630Z,16.13
2022-11-14T06:48:51.490Z,16.52
2022-11-14T06:51:19.148Z,16.98
2022-11-14T06:53:46.261Z,17.42
2022-11-14T06:56:20.178Z,17.13
2022-11-14T06:58:48.757Z,18.35
2022-11-14T07:01:22.020Z,16.50
2022-11-14T07:03:49.353Z,16.52
2022-11-14T07:06:18.843Z,16.70
2022-11-14T07:08:45.873Z,17.17
2022-11-14T07:11:26.138Z,15.75
2022-11-14T07:14:00.580Z,15.70
2022-11-14T07:16:30.830Z,15.27
2022-11-14T07:18:59.002Z,15.57
2022-11-14T07:21:27.734Z,15.73
2022-11-14T07:23:55.581Z,17.35
2022-11-14T07:26:23.144Z,15.95
2022-11-14T07:28:53.567Z,15.30
2022-11-14T07:31:22.726Z,15.05
2022-11-14T07:33:49.712Z,15.52
2022-11-14T07:36:17.400Z,16.35
2022-11-14T07:38:44.646Z,15.65
2022-11-14T07:41:14.679Z,15.98
2022-11-14T07:43:42.181Z,16.58
2022-11-14T07:46:13.061Z,16.20
2022-11-14T07:48:40.354Z,16.95
2022-11-14T07:51:11.101Z,18.70
2022-11-14T07:53:38.000Z,18.73
2022-11-14T07:56:09.648Z,17.92
2022-11-14T07:58:38.446Z,17.17
2022-11-14T08:01:07.567Z,20.60
2022-11-14T08:03:35.318Z,18.05
2022-11-14T08:06:13.904Z,17.58
2022-11-14T08:08:41.017Z,16.63
2022-11-14T08:11:08.533Z,16.35
2022-11-14T08:13:35.537Z,17.20
2022-11-14T08:16:10.791Z,16.00
2022-11-14T08:18:39.138Z,15.50
2022-11-14T08:21:06.933Z,17.30
2022-11-14T08:23:33.965Z,17.15
2022-11-14T08:26:01.139Z,17.92
2022-11-14T08:28:28.587Z,16.10
2022-11-14T08:31:03.190Z,16.90
2022-11-14T08:33:31.469Z,17.38
2022-11-14T08:36:06.868Z,17.90
2022-11-14T08:38:35.054Z,17.52
2022-11-14T08:41:03.179Z,18.05
2022-11-14T08:43:31.542Z,18.42
2022-11-14T08:46:01.778Z,18.10
2022-11-14T08:48:30.599Z,16.15
2022-11-14T08:51:02.375Z,16.52
2022-11-14T08:53:29.280Z,16.75
2022-11-14T08:55:56.570Z,15.40
2022-11-14T08:58:23.418Z,17.55
2022-11-14T09:00:52.035Z,18.38
2022-11-14T09:03:19.118Z,16.60
2022-11-14T09:05:52.062Z,17.70
2022-11-14T09:08:19.397Z,18.38
2022-11-14T09:10:46.676Z,17.40
2022-11-14T09:13:13.792Z,16.75
2022-11-14T09:15:41.047Z,17.75
2022-11-14T09:18:09.787Z,18.17
2022-11-14T09:20:40.120Z,17.67
2022-11-14T09:23:07.856Z,17.30
2022-11-14T09:25:35.994Z,17.15
2022-11-14T09:28:05.480Z,15.95
2022-11-14T09:30:33.402Z,16.92
2022-11-14T09:33:04.614Z,16.98
2022-11-14T09:35:37.894Z,17.50
2022-11-14T09:38:10.789Z,16.40
2022-11-14T09:41:06.898Z,15.85
2022-11-14T09:44:06.234Z,18.80
2022-11-14T09:46:50.301Z,16.65
2022-11-14T09:49:38.897Z,16.00
2022-11-14T09:52:47.663Z,17.67
2022-11-14T09:55:20.121Z,17.35
2022-11-14T09:57:47.813Z,16.38
2022-11-14T10:00:17.130Z,16.42
2022-11-14T10:03:27.323Z,16.77
2022-11-14T10:06:11.438Z,16.38
2022-11-14T10:08:51.316Z,16.13
2022-11-14T10:11:44.226Z,17.58
2022-11-14T10:14:38.046Z,16.60
2022-11-14T10:17:23.028Z,16.30
2022-11-14T10:20:04.984Z,18.02
2022-11-14T10:23:03.698Z,15.63
2022-11-14T10:25:55.027Z,15.23
2022-11-14T10:28:57.419Z,15.35
2022-11-14T10:31:47.235Z,16.63
2022-11-14T10:34:31.585Z,16.50
2022-11-14T10:37:12.850Z,15.98
2022-11-14T10:39:46.764Z,15.48
2022-11-14T10:42:34.923Z,15.27
2022-11-14T10:45:16.285Z,16.50
2022-11-14T10:47:58.820Z,17.52
2022-11-14T10:50:52.607Z,17.20
2022-11-14T10:53:51.462Z,16.20
2022-11-14T10:56:18.913Z,15.35
2022-11-14T10:58:48.887Z,17.27
2022-11-14T11:01:40.019Z,16.85
2022-11-14T11:04:23.538Z,16.40
2022-11-14T11:06:53.544Z,15.85
2022-11-14T11:09:45.401Z,18.75
2022-11-14T11:12:19.636Z,18.13
2022-11-14T11:14:49.027Z,17.98
2022-11-14T11:17:22.685Z,17.75
2022-11-14T11:19:50.121Z,17.23
2022-11-14T11:22:38.607Z,16.75
2022-11-14T11:25:27.493Z,16.02
2022-11-14T11:28:04.450Z,16.48
2022-11-14T11:30:31.403Z,15.93
2022-11-14T11:33:20.924Z,15.50
2022-11-14T11:35:57.516Z,17.02
2022-11-14T11:38:27.872Z,17.38
2022-11-14T11:41:00.648Z,16.42
2022-11-14T11:43:45.358Z,16.45
2022-11-14T11:46:35.005Z,19.83
2022-11-14T11:49:37.103Z,17.02
2022-11-14T11:52:12.069Z,18.40
2022-11-14T11:55:05.452Z,17.60
2022-11-14T11:57:46.590Z,37.38
2022-11-14T12:00:20.542Z,23.15
2022-11-14T12:02:50.582Z,18.52
2022-11-14T12:05:37.380Z,18.20
2022-11-14T12:08:21.375Z,16.95
2022-11-14T12:10:50.294Z,17.15
2022-11-14T12:13:45.859Z,17.58
2022-11-14T12:16:31.189Z,16.65
2022-11-14T12:19:00.882Z,16.90
2022-11-14T12:21:39.250Z,16.50
2022-11-14T12:24:39.542Z,16.45
2022-11-14T12:27:45.481Z,16.13
2022-11-14T12:30:17.923Z,16.55
2022-11-14T12:32:51.344Z,16.92
2022-11-14T12:37:56.381Z,15.60
2022-11-14T12:40:31.949Z,15.90
2022-11-14T12:43:01.526Z,17.35
2022-11-14T12:45:40.688Z,16.77
2022-11-14T12:48:26.234Z,15.40
2022-11-14T12:50:54.816Z,16.27
2022-11-14T12:53:36.673Z,15.60
2022-11-14T12:56:30.833Z,16.70
2022-11-14T12:59:19.725Z,18.65
2022-11-14T13:01:53.300Z,16.02
2022-11-14T13:04:29.927Z,18.63
2022-11-14T13:07:08.848Z,17.05
2022-11-14T13:09:56.267Z,19.05
2022-11-14T13:12:44.730Z,17.67
2022-11-14T13:15:49.316Z,17.73
2022-11-14T13:18:41.415Z,15.73
2022-11-14T13:21:43.978Z,19.33
2022-11-14T13:24:16.252Z,18.70
2022-11-14T13:26:52.481Z,18.55
2022-11-14T13:29:41.275Z,19.05
2022-11-14T13:32:11.974Z,18.75
2022-11-14T13:34:57.625Z,18.58
2022-11-14T13:37:52.283Z,19.25
2022-11-14T13:40:33.285Z,18.33
2022-11-14T13:43:31.205Z,17.10
2022-11-14T13:46:40.736Z,17.98
2022-11-14T13:49:48.587Z,18.52
2022-11-14T13:52:16.737Z,18.95
2022-11-14T13:54:51.126Z,19.73
2022-11-14T13:57:36.628Z,20.20
2022-11-14T14:00:20.432Z,19.05
2022-11-14T14:03:18.926Z,19.15
2022-11-14T14:05:46.196Z,19.27
2022-11-14T14:08:37.632Z,17.65
2022-11-14T14:11:27.958Z,18.40
2022-11-14T14:14:16.721Z,20.80
2022-11-14T14:16:56.420Z,19.95
2022-11-14T14:19:45.096Z,20.42
2022-11-14T14:22:20.803Z,20.85
2022-11-14T14:25:02.739Z,19.63
2022-11-14T14:27:36.745Z,20.65
2022-11-14T14:30:13.680Z,22.17
2022-11-14T14:32:40.998Z,41.92
2022-11-14T14:35:29.281Z,22.90
2022-11-14T14:37:57.446Z,22.73
2022-11-14T14:40:34.518Z,21.88
2022-11-14T14:43:05.322Z,42.13
2022-11-14T14:45:44.446Z,23.80
2022-11-14T14:48:15.020Z,24.42
2022-11-14T14:50:58.641Z,21.17
2022-11-14T14:53:31.930Z,27.70
2022-11-14T14:56:03.846Z,38.72
2022-11-14T14:58:34.004Z,22.67
2022-11-14T15:01:12.425Z,29.80
2022-11-14T15:03:57.798Z,24.63
2022-11-14T15:06:36.809Z,21.23
2022-11-14T15:09:22.779Z,24.73
2022-11-14T15:11:52.130Z,23.85
2022-11-14T15:14:27.663Z,20.88
2022-11-14T15:16:56.358Z,20.88
2022-11-14T15:19:25.518Z,22.85
2022-11-14T15:22:10.711Z,21.42
2022-11-14T15:24:37.872Z,25.77
2022-11-14T15:27:11.799Z,26.40
2022-11-14T15:29:51.106Z,40.25
2022-11-14T15:32:20.989Z,21.70
2022-11-14T15:35:08.356Z,22.48
2022-11-14T15:37:35.347Z,27.27
2022-11-14T15:40:19.820Z,21.45
2022-11-14T15:42:46.643Z,20.15
2022-11-14T15:45:38.472Z,19.88
2022-11-14T15:48:14.124Z,22.00
2022-11-14T15:50:41.930Z,20.42
2022-11-14T15:53:20.843Z,21.80
2022-11-14T15:55:48.030Z,21.90
2022-11-14T15:58:28.392Z,22.48
2022-11-14T16:00:56.638Z,20.83
2022-11-14T16:03:24.290Z,21.77
2022-11-14T16:05:51.756Z,22.85
2022-11-14T16:08:18.641Z,21.65
2022-11-14T16:10:45.798Z,23.13
2022-11-14T16:13:12.646Z,21.23
2022-11-14T16:15:39.923Z,24.98
2022-11-14T16:18:06.829Z,37.30
2022-11-14T16:20:38.090Z,37.58
2022-11-14T16:23:05.922Z,45.72
2022-11-14T16:25:33.499Z,24.10
2022-11-14T16:28:00.406Z,25.23
2022-11-14T16:30:27.634Z,26.90
2022-11-14T16:32:54.511Z,24.85
2022-11-14T16:35:26.897Z,27.00
2022-11-14T16:37:56.893Z,22.58
2022-11-14T16:40:27.805Z,21.90
2022-11-14T16:42:56.627Z,26.13
2022-11-14T16:45:25.252Z,24.77
2022-11-14T16:47:52.907Z,26.60
2022-11-14T16:50:20.737Z,24.10
2022-11-14T16:52:47.622Z,24.85
2022-11-14T16:55:15.110Z,25.05
2022-11-14T16:57:41.974Z,22.88
2022-11-14T17:00:12.538Z,22.23
2022-11-14T17:02:43.295Z,22.60
2022-11-14T17:05:10.828Z,21.23
2022-11-14T17:07:37.788Z,19.58
2022-11-14T17:10:06.903Z,22.85
2022-11-14T17:12:34.305Z,19.70
2022-11-14T17:15:01.462Z,19.55
2022-11-14T17:17:28.397Z,20.40
2022-11-14T17:19:55.542Z,20.75
2022-11-14T17:22:22.549Z,21.08
2022-11-14T17:24:49.649Z,24.38
2022-11-14T17:27:16.524Z,20.73
2022-11-14T17:29:43.911Z,20.65
2022-11-14T17:32:10.748Z,25.40
2022-11-14T17:34:37.880Z,35.30
2022-11-14T17:37:04.724Z,45.92
2022-11-14T17:39:31.955Z,37.78
2022-11-14T17:41:58.840Z,42.13
2022-11-14T17:44:26.058Z,61.47
2022-11-14T17:46:53.753Z,52.05
2022-11-14T17:49:20.871Z,68.53
2022-11-14T17:51:47.737Z,73.53
2022-11-14T17:54:14.882Z,53.10
2022-11-14T17:56:47.404Z,67.95
2022-11-14T17:59:16.048Z,52.75
2022-11-14T18:01:43.011Z,60.25
2022-11-14T18:04:11.369Z,46.67
2022-11-14T18:06:38.252Z,33.65
2022-11-14T18:09:08.103Z,28.48
2022-11-14T18:11:38.490Z,27.42
2022-11-14T18:14:05.750Z,24.50
2022-11-14T18:16:57.317Z,24.23
2022-11-14T18:19:19.808Z,26.92
2022-11-14T18:21:52.022Z,23.65
2022-11-14T18:24:21.806Z,22.42
2022-11-14T18:26:48.707Z,40.20
2022-11-14T18:29:15.943Z,26.83
2022-11-14T18:31:42.888Z,21.33
2022-11-14T18:34:10.011Z,23.00
2022-11-14T18:36:36.869Z,21.70
2022-11-14T18:39:04.234Z,23.73
2022-11-14T18:41:31.296Z,21.75
2022-11-14T18:43:58.655Z,25.05
2022-11-14T18:46:26.572Z,20.23
2022-11-14T18:48:57.090Z,22.67
2022-11-14T18:51:26.749Z,24.17
2022-11-14T18:53:55.916Z,22.92
2022-11-14T18:56:25.423Z,21.90
2022-11-14T18:58:57.104Z,22.15
2022-11-14T19:01:26.582Z,20.20
2022-11-14T19:03:57.608Z,22.85
2022-11-14T19:06:24.652Z,20.45
2022-11-14T19:09:10.625Z,23.00
2022-11-14T19:11:57.420Z,21.02
2022-11-14T19:14:24.678Z,21.08
2022-11-14T19:16:51.553Z,22.88
2022-11-14T19:19:18.944Z,21.40
2022-11-14T19:21:49.370Z,22.55
2022-11-14T19:24:16.893Z,24.65
2022-11-14T19:26:43.873Z,23.50
2022-11-14T19:29:13.385Z,26.08
2022-11-14T19:31:41.530Z,23.60
2022-11-14T19:34:10.073Z,23.42
2022-11-14T19:39:24.670Z,23.10
2022-11-14T19:41:51.789Z,23.23
2022-11-14T19:44:18.918Z,21.15
2022-11-14T19:46:47.750Z,23.55
2022-11-14T19:49:15.717Z,20.63
2022-11-14T19:51:42.714Z,20.85
2022-11-14T19:54:11.017Z,26.38
2022-11-14T19:56:38.071Z,24.25
2022-11-14T19:59:09.690Z,23.83
2022-11-14T20:01:42.130Z,23.27
2022-11-14T20:04:11.994Z,22.33
2022-11-14T20:06:39.116Z,20.33
2022-11-14T20:09:08.690Z,22.42
2022-11-14T20:11:35.829Z,22.92
2022-11-14T20:14:03.237Z,22.42
2022-11-14T20:16:35.797Z,26.00
2022-11-14T20:19:03.502Z,22.40
2022-11-14T20:21:32.734Z,22.95
2022-11-14T20:23:59.991Z,20.70
2022-11-14T20:26:27.692Z,22.08
2022-11-14T20:28:54.983Z,25.75
2022-11-14T20:31:27.849Z,22.73
2022-11-14T20:36:25.079Z,23.05
2022-11-14T20:38:53.073Z,25.77
2022-11-14T20:41:20.836Z,23.23
2022-11-14T20:43:48.514Z,24.98
2022-11-14T20:46:21.584Z,24.48
2022-11-14T20:48:49.903Z,24.08
2022-11-14T20:51:18.724Z,27.60
2022-11-14T20:53:46.188Z,24.05
2022-11-14T20:56:14.278Z,27.05
2022-11-14T20:58:43.237Z,29.52
2022-11-14T21:01:11.028Z,29.67
2022-11-14T21:03:38.847Z,26.80
2022-11-14T21:06:11.235Z,26.33
2022-11-14T21:08:39.402Z,23.83
2022-11-14T21:11:13.332Z,27.20
2022-11-14T21:13:56.219Z,24.88
2022-11-14T21:16:26.510Z,28.23
2022-11-14T21:18:54.751Z,27.63
2022-11-14T21:21:23.777Z,28.85
2022-11-14T21:23:51.443Z,28.30
2022-11-14T21:26:27.298Z,26.92
2022-11-14T21:29:00.616Z,27.13
2022-11-14T21:31:38.504Z,27.95
2022-11-14T21:34:07.922Z,28.50
2022-11-14T21:36:50.167Z,26.75
2022-11-14T21:39:17.771Z,25.17
2022-11-14T21:41:48.233Z,28.23
2022-11-14T21:44:16.908Z,26.60
2022-11-14T21:46:47.096Z,26.00
2022-11-14T21:49:14.675Z,25.02
2022-11-14T21:51:41.770Z,28.67
2022-11-14T21:54:09.521Z,27.23
2022-11-14T21:56:37.259Z,28.70
2022-11-14T21:59:21.572Z,25.38
2022-11-14T22:02:08.827Z,26.17
2022-11-14T22:04:37.075Z,26.25
2022-11-14T22:07:06.232Z,25.55
2022-11-14T22:09:34.400Z,26.85
2022-11-14T22:12:01.442Z,27.92
2022-11-14T22:14:29.517Z,27.63
2022-11-14T22:16:57.958Z,28.38
2022-11-14T22:19:25.231Z,27.08
2022-11-14T22:21:52.294Z,27.20
2022-11-14T22:24:19.551Z,24.88
2022-11-14T22:26:46.420Z,25.60
2022-11-14T22:29:13.879Z,25.98
2022-11-14T22:31:40.752Z,26.92
2022-11-14T22:34:08.127Z,26.65
2022-11-14T22:36:35.856Z,27.17
2022-11-14T22:39:03.449Z,27.50
2022-11-14T22:41:33.403Z,24.50
2022-11-14T22:44:02.389Z,27.20
2022-11-14T22:46:29.567Z,26.98
2022-11-14T22:48:56.847Z,26.75
2022-11-14T22:51:25.733Z,24.17
2022-11-14T22:53:57.825Z,25.67
2022-11-14T22:56:29.293Z,27.48
2022-11-14T22:58:58.981Z,26.88
2022-11-14T23:01:31.408Z,24.20
2022-11-14T23:04:00.964Z,30.70
2022-11-14T23:06:29.061Z,26.67
2022-11-14T23:08:56.764Z,26.50
2022-11-14T23:11:26.209Z,23.75
2022-11-14T23:13:55.464Z,25.38
2022-11-14T23:16:27.585Z,26.05
2022-11-14T23:18:57.597Z,25.73
2022-11-14T23:21:30.472Z,27.55
2022-11-14T23:26:31.910Z,24.17
2022-11-14T23:28:59.967Z,26.65
2022-11-14T23:31:27.373Z,25.38
2022-11-14T23:33:56.124Z,24.23
2022-11-14T23:36:23.009Z,25.23
2022-11-14T23:38:53.219Z,28.05
2022-11-14T23:41:27.727Z,24.52
2022-11-14T23:43:54.912Z,24.83
2022-11-14T23:46:21.858Z,25.33
2022-11-14T23:48:49.170Z,26.73
2022-11-14T23:51:17.547Z,24.83
2022-11-14T23:53:44.701Z,26.42
2022-11-14T23:56:13.480Z,27.25
2022-11-14T23:58:41.662Z,28.48
